< < Back
Terminal Aerodrome Forecast


Current Version              Previous Versions:   1  2  3  4  5  6  7  8  9  

Terminal Aerodrome Forecast

510
FTUS42 KMLB 231700
TAFMCO
TAF
KMCO 231729Z 2318/2418 01008KT P6SM FEW050 FEW250
     FM240400 01006KT P6SM SCT250
     FM241400 03010KT P6SM FEW035=

Latest METAR

762
SAUS70 KWBC 231800 RRQ
MTRMCO
METAR KMCO 231753Z 03005KT 10SM FEW050 FEW250 27/13 A2998 RMK AO2 SLP150
T02720128 10278 20167 58014 $


USA.gov is the U.S. government's official web portal to all federal, state and local government web resources and services.